Time;durP1;ratioP1;P1;durP2;ratioP2;P2;SDS_P1;SDS_P2;PMS_P1;PMS_P2;Temp;Humidity;BMP_temperature;BMP_pressure;BME280_temperature;BME280_humidity;BME280_pressure;Samples;Min_cycle;Max_cycle;Signal;HPM_P1;HPM_P2
2021/04/27 00:00:55;;;;;;;1.23;0.50;;;21.40;40.00;;;;;;10420698;28;20193;-17
2021/04/27 00:06:16;;;;;;;1.53;0.60;;;21.40;39.80;;;;;;10420019;28;20735;-14
2021/04/27 00:11:39;;;;;;;0.97;0.40;;;21.40;39.80;;;;;;10420376;28;20232;-16
2021/04/27 00:17:00;;;;;;;0.60;0.50;;;21.50;39.70;;;;;;10418896;28;20228;-14
2021/04/27 00:22:22;;;;;;;0.70;0.40;;;21.40;39.80;;;;;;10418524;28;20205;-17
2021/04/27 00:27:48;;;;;;;2.47;0.60;;;21.40;39.70;;;;;;10419712;28;20237;-14
2021/04/27 00:33:09;;;;;;;0.40;0.30;;;21.40;39.70;;;;;;10417992;28;20502;-14
2021/04/27 00:38:32;;;;;;;0.83;0.50;;;21.50;39.60;;;;;;10419253;28;20220;-16
2021/04/27 00:43:55;;;;;;;0.30;0.30;;;21.50;39.70;;;;;;10418817;28;20217;-14
2021/04/27 00:49:16;;;;;;;0.80;0.50;;;21.40;39.70;;;;;;10417814;28;20291;-14
2021/04/27 00:54:39;;;;;;;1.60;0.40;;;21.40;39.60;;;;;;10417407;28;20209;-16
2021/04/27 01:00:01;;;;;;;1.13;0.40;;;21.50;39.50;;;;;;10417545;28;20226;-16
2021/04/27 01:05:26;;;;;;;1.03;0.67;;;21.40;39.40;;;;;;10418692;28;20221;-14
2021/04/27 01:10:56;;;;;;;0.70;0.50;;;21.40;39.70;;;;;;10416420;28;20293;-14
2021/04/27 01:16:19;;;;;;;1.20;0.40;;;21.50;39.50;;;;;;10416727;28;20210;-14
2021/04/27 01:21:41;;;;;;;0.70;0.60;;;21.50;39.50;;;;;;10416688;28;20206;-14
2021/04/27 01:27:06;;;;;;;0.80;0.40;;;21.40;39.50;;;;;;10416666;28;20225;-14
2021/04/27 01:32:28;;;;;;;0.40;0.30;;;21.40;39.60;;;;;;10417095;28;20197;-15
2021/04/27 01:37:50;;;;;;;0.60;0.43;;;21.40;39.50;;;;;;10415520;28;20221;-14
2021/04/27 01:43:13;;;;;;;1.13;0.50;;;21.40;39.60;;;;;;10416662;28;20197;-14
2021/04/27 01:48:36;;;;;;;0.40;0.40;;;21.40;39.50;;;;;;10415047;28;20217;-14
2021/04/27 01:53:58;;;;;;;0.40;0.40;;;21.40;39.70;;;;;;10416778;28;20194;-16
2021/04/27 01:59:21;;;;;;;1.63;0.70;;;21.40;39.50;;;;;;10375678;28;20218;-15
2021/04/27 02:04:42;;;;;;;0.70;0.40;;;21.40;39.60;;;;;;10373771;28;20214;-14
2021/04/27 02:10:06;;;;;;;0.47;0.37;;;21.40;39.50;;;;;;10373510;28;20194;-14
2021/04/27 02:15:30;;;;;;;1.40;0.67;;;21.40;39.60;;;;;;10374442;28;20219;-14
2021/04/27 02:20:53;;;;;;;0.77;0.40;;;21.40;39.60;;;;;;10394568;28;20197;-14
2021/04/27 02:26:15;;;;;;;0.70;0.53;;;21.40;39.40;;;;;;10374196;28;20590;-14
2021/04/27 02:31:40;;;;;;;0.60;0.40;;;21.50;39.30;;;;;;10412863;28;20197;-14
2021/04/27 02:37:01;;;;;;;0.87;0.50;;;21.40;39.50;;;;;;10415163;28;20222;-14
2021/04/27 02:42:25;;;;;;;0.77;0.40;;;21.40;39.60;;;;;;10413351;28;20581;-15
2021/04/27 02:47:48;;;;;;;0.50;0.40;;;21.40;39.50;;;;;;10415126;28;20771;-14
2021/04/27 02:53:10;;;;;;;0.50;0.40;;;21.40;39.50;;;;;;10414505;28;20276;-13
2021/04/27 02:58:31;;;;;;;0.50;0.30;;;21.40;39.30;;;;;;10414128;28;20225;-14
2021/04/27 03:03:54;;;;;;;0.60;0.50;;;21.40;39.40;;;;;;10414198;28;20201;-15
2021/04/27 03:09:15;;;;;;;1.10;0.50;;;21.40;39.60;;;;;;10413150;28;20221;-15
2021/04/27 03:14:37;;;;;;;0.50;0.50;;;21.40;39.50;;;;;;10412765;28;20190;-16
2021/04/27 03:20:00;;;;;;;0.90;0.60;;;21.40;39.40;;;;;;10412675;28;20275;-14
2021/04/27 03:25:21;;;;;;;2.50;0.60;;;21.30;39.60;;;;;;10407982;28;20221;-14
2021/04/27 03:30:43;;;;;;;0.87;0.40;;;21.40;39.50;;;;;;10411917;28;20197;-15
2021/04/27 03:36:06;;;;;;;0.87;0.30;;;21.40;39.40;;;;;;10413478;28;20228;-14
2021/04/27 03:41:28;;;;;;;0.50;0.43;;;21.50;39.10;;;;;;10413054;28;20202;-14
2021/04/27 03:46:49;;;;;;;0.70;0.50;;;21.60;38.90;;;;;;10412689;28;20225;-14
2021/04/27 03:52:12;;;;;;;0.60;0.50;;;21.60;38.90;;;;;;10412570;28;20202;-14
2021/04/27 03:57:33;;;;;;;0.33;0.30;;;21.70;38.80;;;;;;10411724;28;20318;-15
2021/04/27 04:02:55;;;;;;;1.20;0.50;;;21.70;38.80;;;;;;10412814;28;20228;-14
2021/04/27 04:08:17;;;;;;;0.93;0.50;;;21.70;38.70;;;;;;10412770;28;20562;-15
2021/04/27 04:13:39;;;;;;;0.50;0.40;;;21.80;38.70;;;;;;10410530;28;20550;-15
2021/04/27 04:19:02;;;;;;;1.67;0.40;;;21.80;38.30;;;;;;10406231;28;20229;-14
2021/04/27 04:24:25;;;;;;;0.33;0.33;;;21.90;38.50;;;;;;10371750;28;20202;-16
2021/04/27 04:29:46;;;;;;;1.17;0.50;;;21.80;38.50;;;;;;10389624;28;20201;-14
2021/04/27 04:35:09;;;;;;;0.70;0.40;;;21.80;38.60;;;;;;10377990;28;20616;-13
2021/04/27 04:40:32;;;;;;;0.87;0.50;;;21.80;38.60;;;;;;10411758;28;20202;-14
2021/04/27 04:45:54;;;;;;;0.80;0.40;;;21.80;38.60;;;;;;10419211;28;20222;-14
2021/04/27 04:51:16;;;;;;;0.40;0.40;;;21.80;38.50;;;;;;10418015;28;20206;-14
2021/04/27 04:56:38;;;;;;;1.43;0.60;;;21.70;38.70;;;;;;10419365;28;20593;-14
2021/04/27 05:02:00;;;;;;;0.60;0.30;;;21.80;38.50;;;;;;10418824;28;20202;-16
2021/04/27 05:07:25;;;;;;;0.60;0.57;;;21.90;38.50;;;;;;10414971;28;20226;-14
2021/04/27 05:12:47;;;;;;;1.13;0.40;;;21.90;38.30;;;;;;10417750;28;20229;-14
2021/04/27 05:18:09;;;;;;;2.57;0.57;;;21.90;38.50;;;;;;10417816;28;20217;-16
2021/04/27 05:23:31;;;;;;;0.50;0.50;;;21.80;38.50;;;;;;10376863;28;20194;-13
2021/04/27 05:28:53;;;;;;;1.30;0.50;;;21.90;38.50;;;;;;10375800;28;20219;-14
2021/04/27 05:34:15;;;;;;;1.10;0.60;;;21.90;38.40;;;;;;10375928;28;20252;-13
2021/04/27 05:39:37;;;;;;;0.50;0.40;;;21.90;38.40;;;;;;10375188;28;20233;-14
2021/04/27 05:45:00;;;;;;;0.60;0.50;;;21.80;38.60;;;;;;10374909;28;20222;-16
2021/04/27 05:50:21;;;;;;;0.50;0.40;;;21.90;38.30;;;;;;10374975;28;20277;-14
2021/04/27 05:55:43;;;;;;;3.43;1.13;;;21.90;38.40;;;;;;10404364;28;20264;-17
2021/04/27 06:01:06;;;;;;;2.77;1.23;;;21.60;28.90;;;;;;10409034;28;20201;-13
2021/04/27 06:06:28;;;;;;;1.80;1.20;;;21.00;27.90;;;;;;10415647;28;20632;-16
2021/04/27 06:11:49;;;;;;;3.13;1.40;;;20.50;28.10;;;;;;10415510;28;20240;-14
2021/04/27 06:17:12;;;;;;;2.10;1.00;;;20.30;28.70;;;;;;10374510;28;20233;-14
2021/04/27 06:22:34;;;;;;;1.50;1.03;;;20.20;29.20;;;;;;10374696;28;20195;-15
2021/04/27 06:27:55;;;;;;;1.90;1.40;;;19.80;28.70;;;;;;10391699;28;20693;-15
2021/04/27 06:33:18;;;;;;;1.17;1.00;;;19.50;28.10;;;;;;10375714;28;20199;-14
2021/04/27 06:38:39;;;;;;;2.53;1.20;;;19.20;28.10;;;;;;10410565;28;20230;-14
2021/04/27 06:44:03;;;;;;;4.63;1.37;;;19.10;28.40;;;;;;10415042;28;20255;-14
2021/04/27 06:49:25;;;;;;;3.33;0.90;;;19.00;28.30;;;;;;10435923;28;20207;-14
2021/04/27 06:54:47;;;;;;;1.40;1.00;;;19.40;30.40;;;;;;10449895;28;20206;-15
2021/04/27 07:00:10;;;;;;;1.70;0.90;;;20.40;31.30;;;;;;10414013;28;20216;-16
2021/04/27 07:05:33;;;;;;;1.37;0.80;;;21.50;31.70;;;;;;10412797;28;20285;-14
2021/04/27 07:10:57;;;;;;;1.40;0.90;;;22.20;31.90;;;;;;10399487;28;20210;-14
2021/04/27 07:16:20;;;;;;;0.80;0.60;;;22.60;32.00;;;;;;10373566;28;20594;-14
2021/04/27 07:21:42;;;;;;;1.87;0.80;;;22.90;31.90;;;;;;10373347;28;20570;-15
2021/04/27 07:27:05;;;;;;;1.40;0.73;;;23.40;31.60;;;;;;10375501;28;20226;-15
2021/04/27 07:32:26;;;;;;;1.10;0.80;;;23.50;31.80;;;;;;10372472;28;20570;-13
2021/04/27 07:37:49;;;;;;;1.07;0.70;;;23.60;32.10;;;;;;10371876;28;20233;-14
2021/04/27 07:43:10;;;;;;;0.80;0.60;;;23.70;32.20;;;;;;10401935;28;20198;-13
2021/04/27 07:48:33;;;;;;;0.87;0.77;;;23.70;32.40;;;;;;10419641;28;20596;-14
2021/04/27 07:53:55;;;;;;;0.77;0.57;;;23.80;32.40;;;;;;10411982;28;20281;-14
2021/04/27 07:59:17;;;;;;;1.00;0.50;;;24.00;32.60;;;;;;10368212;28;20218;-15
2021/04/27 08:04:38;;;;;;;1.83;0.80;;;23.60;33.10;;;;;;10369148;28;20201;-15
2021/04/27 08:10:01;;;;;;;1.77;0.90;;;23.20;33.80;;;;;;10414615;28;20194;-15
2021/04/27 08:15:26;;;;;;;0.57;0.47;;;23.10;34.30;;;;;;10417798;28;20230;-16
2021/04/27 08:20:48;;;;;;;1.63;0.70;;;22.90;35.20;;;;;;10417307;28;20525;-15
2021/04/27 08:26:13;;;;;;;0.90;0.60;;;22.80;34.90;;;;;;10420072;28;20213;-15
2021/04/27 08:31:34;;;;;;;0.83;0.60;;;22.80;35.00;;;;;;10443136;28;20189;-15
2021/04/27 08:36:56;;;;;;;1.70;0.83;;;22.70;35.30;;;;;;10412788;28;20310;-15
2021/04/27 08:42:19;;;;;;;1.67;0.90;;;22.80;35.40;;;;;;10431674;28;20268;-15
2021/04/27 08:47:41;;;;;;;2.77;0.77;;;22.70;35.90;;;;;;10397249;28;20264;-15
2021/04/27 08:53:03;;;;;;;1.93;0.60;;;22.60;36.00;;;;;;10415546;28;20190;-15
2021/04/27 08:58:26;;;;;;;1.50;0.60;;;22.70;36.30;;;;;;10435596;28;20223;-15
2021/04/27 09:03:51;;;;;;;1.57;0.70;;;22.70;36.40;;;;;;10457202;28;20193;-14
2021/04/27 09:09:32;;;;;;;0.43;0.33;;;22.80;36.60;;;;;;10420243;28;20222;-15
2021/04/27 09:14:56;;;;;;;1.47;0.70;;;23.00;36.50;;;;;;10415422;28;20285;-15
2021/04/27 09:20:17;;;;;;;1.73;0.83;;;23.10;36.40;;;;;;10414166;28;20197;-14
2021/04/27 09:25:39;;;;;;;1.73;0.70;;;23.10;36.40;;;;;;10414754;28;20692;-15
2021/04/27 09:31:19;;;;;;;0.93;0.70;;;23.10;36.20;;;;;;10414335;28;20700;-15
2021/04/27 09:36:41;;;;;;;2.30;0.80;;;23.00;36.50;;;;;;10414005;28;20728;-15
2021/04/27 09:42:09;;;;;;;1.10;0.67;;;22.90;36.70;;;;;;10413812;28;20619;-15
2021/04/27 09:47:33;;;;;;;1.17;0.70;;;22.90;36.90;;;;;;10427078;28;20220;-15
2021/04/27 09:52:55;;;;;;;0.63;0.60;;;22.90;36.80;;;;;;10455186;28;20197;-15
2021/04/27 09:58:16;;;;;;;1.30;0.60;;;22.80;37.10;;;;;;10421902;28;20225;-14
2021/04/27 10:03:39;;;;;;;0.67;0.60;;;22.80;37.10;;;;;;10412572;28;20251;-15
2021/04/27 10:09:02;;;;;;;0.50;0.50;;;22.80;37.10;;;;;;10412523;28;20592;-15
2021/04/27 10:14:24;;;;;;;0.83;0.60;;;22.70;37.40;;;;;;10412754;28;20240;-15
2021/04/27 10:19:47;;;;;;;0.90;0.63;;;22.80;37.40;;;;;;10412520;28;20221;-15
2021/04/27 10:25:18;;;;;;;0.70;0.50;;;22.80;37.30;;;;;;10412019;28;20226;-15
2021/04/27 10:30:42;;;;;;;0.87;0.50;;;22.70;37.50;;;;;;10411681;28;20198;-15
2021/04/27 10:36:09;;;;;;;1.03;0.73;;;22.70;37.70;;;;;;10410719;28;20214;-14
2021/04/27 10:41:50;;;;;;;1.77;0.60;;;22.80;37.60;;;;;;10405347;28;20194;-15
2021/04/27 10:47:17;;;;;;;0.97;0.40;;;22.70;37.50;;;;;;10415438;28;20205;-14
2021/04/27 10:52:40;;;;;;;1.27;0.53;;;22.50;37.90;;;;;;10388614;28;20202;-15
2021/04/27 10:58:04;;;;;;;0.90;0.50;;;22.30;38.40;;;;;;10401085;28;20221;-15
2021/04/27 11:03:27;;;;;;;1.70;0.50;;;22.20;38.60;;;;;;10393805;28;20229;-15
2021/04/27 11:08:52;;;;;;;1.03;0.57;;;22.30;38.80;;;;;;10399463;28;20709;-15
2021/04/27 11:14:17;;;;;;;0.80;0.50;;;22.40;38.30;;;;;;10403522;28;20201;-14
2021/04/27 11:19:43;;;;;;;4.63;0.73;;;22.50;38.30;;;;;;10410303;28;20230;-16
2021/04/27 11:25:08;;;;;;;1.80;0.70;;;22.50;38.60;;;;;;10410312;28;20592;-15
2021/04/27 11:30:34;;;;;;;3.27;0.80;;;22.50;38.30;;;;;;10448842;28;20196;-15
2021/04/27 11:35:55;;;;;;;0.87;0.60;;;22.50;38.50;;;;;;10369716;28;20230;-16
2021/04/27 11:41:18;;;;;;;1.40;0.70;;;22.50;38.70;;;;;;10386690;28;20204;-15
2021/04/27 11:46:59;;;;;;;0.90;0.50;;;22.50;38.80;;;;;;10429068;28;20217;-16
2021/04/27 11:52:50;;;;;;;0.90;0.60;;;22.50;38.60;;;;;;10382773;28;20244;-15
2021/04/27 11:58:15;;;;;;;0.70;0.50;;;22.40;38.70;;;;;;10414426;28;20222;-15
2021/04/27 12:03:40;;;;;;;1.17;0.50;;;22.40;38.80;;;;;;10418515;28;20206;-15
2021/04/27 12:09:03;;;;;;;1.20;0.53;;;22.50;38.90;;;;;;10417058;28;20228;-15
2021/04/27 12:14:26;;;;;;;5.60;0.87;;;22.50;38.80;;;;;;10412029;28;20595;-15
2021/04/27 12:20:05;;;;;;;0.77;0.53;;;22.50;39.00;;;;;;10416144;28;20213;-15
2021/04/27 12:25:28;;;;;;;0.80;0.60;;;22.50;38.80;;;;;;10416650;28;20581;-15
2021/04/27 12:30:51;;;;;;;0.93;0.57;;;22.50;38.80;;;;;;10457233;28;20254;-15
2021/04/27 12:36:13;;;;;;;0.57;0.40;;;22.40;38.90;;;;;;10455871;28;20217;-15
2021/04/27 12:41:37;;;;;;;0.67;0.50;;;22.50;38.80;;;;;;10414674;28;20558;-14
2021/04/27 12:47:03;;;;;;;1.00;0.80;;;22.50;38.80;;;;;;10422486;28;20213;-15
2021/04/27 12:52:26;;;;;;;0.87;0.67;;;22.50;38.80;;;;;;10417396;28;20581;-15
2021/04/27 12:57:48;;;;;;;0.70;0.50;;;22.50;38.80;;;;;;10414643;28;20214;-14
2021/04/27 13:03:18;;;;;;;0.90;0.60;;;22.50;38.80;;;;;;10414596;28;20235;-17
2021/04/27 13:08:40;;;;;;;1.33;0.40;;;22.50;39.10;;;;;;10413274;28;20221;-16
2021/04/27 13:14:17;;;;;;;1.30;0.60;;;22.60;38.60;;;;;;10414571;28;20198;-15
2021/04/27 13:19:46;;;;;;;1.80;0.60;;;22.70;38.90;;;;;;10402741;28;20586;-16
2021/04/27 13:25:13;;;;;;;0.90;0.67;;;22.30;39.20;;;;;;10414079;28;20217;-16
2021/04/27 13:30:36;;;;;;;3.17;0.50;;;22.20;39.40;;;;;;10413398;28;20275;-16
2021/04/27 13:36:03;;;;;;;0.60;0.60;;;22.30;39.50;;;;;;10413193;28;20233;-16
2021/04/27 13:41:26;;;;;;;2.90;0.70;;;22.20;39.50;;;;;;10412981;28;20271;-16
2021/04/27 13:46:47;;;;;;;3.80;0.80;;;22.10;39.00;;;;;;10407258;28;20218;-16
2021/04/27 13:52:10;;;;;;;2.70;0.70;;;22.00;38.60;;;;;;10455638;28;20207;-16
2021/04/27 13:57:31;;;;;;;2.90;0.77;;;22.10;38.60;;;;;;10419354;28;20226;-16
2021/04/27 14:02:55;;;;;;;1.37;0.77;;;22.20;38.70;;;;;;10408803;28;20208;-17
2021/04/27 14:08:18;;;;;;;2.27;0.50;;;22.20;38.70;;;;;;10408678;28;20356;-15
2021/04/27 14:13:40;;;;;;;2.30;0.63;;;22.20;38.60;;;;;;10409798;28;20209;-16
2021/04/27 14:19:01;;;;;;;1.70;0.80;;;22.20;38.60;;;;;;10407219;28;20225;-16
2021/04/27 14:24:24;;;;;;;2.10;0.80;;;22.30;39.10;;;;;;10368397;28;20187;-14
2021/04/27 14:29:46;;;;;;;1.00;0.60;;;22.20;38.90;;;;;;10400407;28;20193;-16
2021/04/27 14:35:09;;;;;;;2.27;0.70;;;22.20;38.80;;;;;;10393074;28;20215;-16
2021/04/27 14:40:32;;;;;;;1.90;0.67;;;22.20;38.90;;;;;;10391908;28;20573;-15
2021/04/27 14:45:54;;;;;;;0.80;0.73;;;22.20;38.70;;;;;;10396223;28;20210;-16
2021/04/27 14:51:15;;;;;;;3.27;0.60;;;22.30;38.70;;;;;;10402999;28;20204;-16
2021/04/27 14:56:38;;;;;;;4.33;0.97;;;22.20;38.50;;;;;;10393950;28;20590;-16
2021/04/27 15:01:59;;;;;;;4.87;1.10;;;22.20;38.70;;;;;;10367224;28;20197;-16
2021/04/27 15:07:21;;;;;;;4.17;1.03;;;22.30;38.40;;;;;;10381989;28;20220;-16
2021/04/27 15:12:43;;;;;;;2.57;0.77;;;22.20;38.40;;;;;;10397488;28;20336;-15
2021/04/27 15:18:05;;;;;;;2.57;1.00;;;22.10;38.70;;;;;;10406936;28;20226;-16
2021/04/27 15:23:27;;;;;;;6.30;1.00;;;22.10;38.30;;;;;;10406892;28;20689;-15
2021/04/27 15:28:49;;;;;;;6.17;1.00;;;22.10;38.10;;;;;;10406595;28;20213;-16
2021/04/27 15:34:11;;;;;;;17.00;1.60;;;22.30;38.90;;;;;;10406699;28;20189;-15
2021/04/27 15:39:33;;;;;;;12.80;1.50;;;22.40;38.70;;;;;;10405981;28;20241;-15
2021/04/27 15:44:56;;;;;;;6.73;1.30;;;22.40;39.10;;;;;;10407616;28;20217;-16
2021/04/27 15:50:20;;;;;;;28.93;2.93;;;22.50;39.30;;;;;;10402787;28;20190;-16
2021/04/27 15:55:42;;;;;;;39.37;4.23;;;22.50;39.20;;;;;;10406441;28;20218;-15
2021/04/27 16:01:04;;;;;;;25.47;3.27;;;22.40;40.10;;;;;;10407077;28;20809;-15
2021/04/27 16:06:26;;;;;;;9.00;2.00;;;22.20;40.20;;;;;;10370206;28;20217;-15
2021/04/27 16:11:47;;;;;;;17.77;2.13;;;22.00;28.30;;;;;;10424649;28;20668;-15
2021/04/27 16:17:10;;;;;;;7.00;1.80;;;21.30;25.50;;;;;;10365833;28;20222;-15
2021/04/27 16:22:31;;;;;;;2.23;1.10;;;21.40;25.30;;;;;;10363948;28;20203;-15
2021/04/27 16:27:54;;;;;;;2.10;1.03;;;21.20;26.20;;;;;;10424654;28;20212;-16
2021/04/27 16:33:17;;;;;;;2.73;1.00;;;21.60;29.90;;;;;;10454065;28;20287;-15
2021/04/27 16:38:38;;;;;;;1.97;1.20;;;22.00;31.40;;;;;;10454575;28;20267;-15
2021/04/27 16:44:00;;;;;;;1.77;0.80;;;22.20;32.00;;;;;;10414926;28;20267;-15
2021/04/27 16:49:23;;;;;;;2.57;1.00;;;22.20;32.70;;;;;;10373444;28;20226;-15
2021/04/27 16:54:44;;;;;;;2.43;0.80;;;22.30;33.50;;;;;;10406691;28;20201;-15
2021/04/27 17:00:11;;;;;;;2.87;0.70;;;22.20;34.00;;;;;;10412645;28;20220;-15
2021/04/27 17:05:33;;;;;;;2.37;0.77;;;22.30;34.50;;;;;;10451604;28;20237;-14
2021/04/27 17:10:55;;;;;;;1.13;0.77;;;22.30;34.60;;;;;;10436304;28;20190;-15
2021/04/27 17:16:17;;;;;;;1.90;0.80;;;22.40;34.70;;;;;;10371990;28;20221;-15
2021/04/27 17:21:39;;;;;;;2.13;0.83;;;22.40;35.80;;;;;;10370692;28;20203;-15
2021/04/27 17:27:01;;;;;;;4.67;0.90;;;22.40;35.20;;;;;;10371033;28;20225;-15
2021/04/27 17:32:23;;;;;;;2.60;0.80;;;22.30;35.20;;;;;;10372853;28;20563;-16
2021/04/27 17:37:46;;;;;;;4.17;0.90;;;22.20;35.80;;;;;;10407405;28;20308;-14
2021/04/27 17:43:07;;;;;;;7.70;1.30;;;22.30;36.00;;;;;;10406513;28;20206;-14
2021/04/27 17:48:29;;;;;;;4.40;0.90;;;22.30;35.90;;;;;;10373400;28;20225;-15
2021/04/27 17:53:52;;;;;;;3.13;0.97;;;22.30;36.50;;;;;;10370080;28;20194;-14
2021/04/27 17:59:13;;;;;;;3.60;0.90;;;22.30;36.20;;;;;;10410472;28;20230;-15
2021/04/27 18:04:36;;;;;;;2.57;1.17;;;22.20;36.60;;;;;;10410278;28;20212;-16
2021/04/27 18:09:59;;;;;;;1.27;0.77;;;22.30;36.60;;;;;;10409946;28;20625;-14
2021/04/27 18:15:22;;;;;;;2.83;0.77;;;22.30;36.70;;;;;;10409701;28;20711;-14
2021/04/27 18:20:45;;;;;;;1.43;0.67;;;22.30;36.50;;;;;;10409814;28;20831;-14
2021/04/27 18:26:07;;;;;;;5.60;0.90;;;22.40;36.10;;;;;;10408952;28;20293;-14
2021/04/27 18:31:29;;;;;;;2.67;0.90;;;22.50;36.00;;;;;;10408956;28;20202;-15
2021/04/27 18:36:51;;;;;;;0.90;0.60;;;22.60;35.90;;;;;;10408554;28;20222;-15
2021/04/27 18:42:14;;;;;;;2.93;0.80;;;22.70;35.80;;;;;;10387327;28;20194;-14
2021/04/27 18:47:36;;;;;;;2.00;0.90;;;22.80;35.60;;;;;;10368388;28;20370;-15
2021/04/27 18:52:58;;;;;;;3.90;0.80;;;22.70;35.20;;;;;;10387077;28;20213;-15
2021/04/27 18:58:20;;;;;;;2.40;0.80;;;22.50;36.00;;;;;;10409059;28;20713;-15
2021/04/27 19:03:42;;;;;;;3.00;0.90;;;22.50;36.40;;;;;;10410182;28;20580;-15
2021/04/27 19:09:05;;;;;;;1.10;0.90;;;22.50;36.00;;;;;;10408983;28;20217;-15
2021/04/27 19:14:27;;;;;;;1.80;0.73;;;22.50;36.00;;;;;;10402201;28;20206;-15
2021/04/27 19:19:49;;;;;;;1.73;0.80;;;22.50;36.30;;;;;;10368623;28;20214;-15
2021/04/27 19:25:12;;;;;;;4.37;0.70;;;22.50;36.80;;;;;;10370636;28;20229;-14
2021/04/27 19:30:35;;;;;;;3.97;1.00;;;22.50;37.30;;;;;;10368433;28;20823;-15
2021/04/27 19:35:57;;;;;;;1.60;0.90;;;23.00;35.90;;;;;;10400782;28;20221;-15
2021/04/27 19:41:18;;;;;;;3.70;0.90;;;22.80;36.40;;;;;;10376182;28;20225;-16
2021/04/27 19:46:43;;;;;;;3.07;0.93;;;22.90;36.30;;;;;;10409216;28;20604;-15
2021/04/27 19:57:12;;;;;;;1.60;0.60;;;23.00;36.20;;;;;;10363530;23;20749;-16
2021/04/27 20:02:35;;;;;;;1.07;0.70;;;23.10;36.10;;;;;;10369069;28;20218;-17
2021/04/27 20:07:56;;;;;;;3.03;0.63;;;23.10;36.10;;;;;;10380676;28;20202;-15
2021/04/27 20:13:19;;;;;;;2.40;0.80;;;23.10;36.10;;;;;;10380469;28;20222;-15
2021/04/27 20:18:41;;;;;;;1.33;0.80;;;23.20;36.00;;;;;;10339241;28;20214;-19
2021/04/27 20:24:03;;;;;;;1.87;0.90;;;23.10;35.80;;;;;;10339860;28;20219;-15
2021/04/27 20:29:25;;;;;;;1.07;0.77;;;23.20;36.00;;;;;;10339212;28;20198;-14
2021/04/27 20:34:47;;;;;;;1.40;0.60;;;23.00;36.10;;;;;;10342215;28;20218;-19
2021/04/27 20:40:12;;;;;;;0.90;0.60;;;22.50;37.00;;;;;;10341669;28;20598;-15
2021/04/27 20:45:35;;;;;;;1.23;0.60;;;22.30;37.60;;;;;;10360222;28;20268;-19
2021/04/27 20:50:58;;;;;;;2.23;0.63;;;22.10;38.00;;;;;;10349503;28;20198;-17
2021/04/27 20:56:20;;;;;;;2.23;0.70;;;22.00;38.00;;;;;;10337933;28;21080;-19
2021/04/27 21:01:42;;;;;;;0.83;0.50;;;21.90;38.30;;;;;;10336639;28;20315;-19
2021/04/27 21:07:05;;;;;;;1.23;0.70;;;21.80;38.40;;;;;;10337695;28;20217;-15
2021/04/27 21:12:27;;;;;;;1.10;0.70;;;21.80;38.50;;;;;;10340319;28;20206;-15
2021/04/27 21:17:49;;;;;;;0.70;0.53;;;21.80;38.60;;;;;;10340320;28;20223;-20
2021/04/27 21:23:11;;;;;;;0.87;0.50;;;21.70;38.50;;;;;;10299936;28;20215;-19
2021/04/27 21:28:33;;;;;;;2.20;0.90;;;21.70;38.60;;;;;;10311017;28;20214;-19
2021/04/27 21:33:55;;;;;;;0.80;0.60;;;21.70;38.60;;;;;;10338720;28;20215;-18
2021/04/27 21:39:17;;;;;;;0.77;0.50;;;21.60;38.60;;;;;;10338478;28;20222;-18
2021/04/27 21:44:39;;;;;;;0.80;0.60;;;21.60;38.70;;;;;;10337975;28;20219;-15
2021/04/27 21:50:01;;;;;;;0.90;0.60;;;21.60;38.90;;;;;;10303561;28;20186;-18
2021/04/27 21:55:23;;;;;;;0.80;0.60;;;21.60;38.60;;;;;;10338148;28;20223;-17
2021/04/27 22:00:45;;;;;;;0.70;0.70;;;21.70;38.50;;;;;;10339488;28;20230;-18
2021/04/27 22:06:07;;;;;;;1.33;0.50;;;21.60;38.60;;;;;;10331241;28;20215;-15
2021/04/27 22:11:29;;;;;;;1.17;0.70;;;21.60;38.60;;;;;;10338826;28;20199;-20
2021/04/27 22:16:51;;;;;;;0.73;0.60;;;21.60;38.70;;;;;;10366555;28;20219;-20
2021/04/27 22:22:13;;;;;;;0.80;0.50;;;21.60;38.60;;;;;;10337736;28;20790;-16
2021/04/27 22:27:36;;;;;;;1.03;0.67;;;21.60;38.80;;;;;;10335097;28;20548;-18
2021/04/27 22:32:58;;;;;;;0.80;0.60;;;21.50;38.70;;;;;;10339081;28;20661;-17
2021/04/27 22:38:20;;;;;;;1.07;0.67;;;21.60;38.60;;;;;;10350441;28;20642;-16
2021/04/27 22:43:43;;;;;;;0.70;0.57;;;21.50;38.60;;;;;;10336214;28;20218;-18
2021/04/27 22:49:05;;;;;;;0.57;0.57;;;21.60;38.80;;;;;;10335865;28;20206;-17
2021/04/27 22:54:27;;;;;;;1.03;0.80;;;21.50;38.60;;;;;;10334537;28;20273;-20
2021/04/27 22:59:49;;;;;;;0.80;0.37;;;21.50;38.60;;;;;;10335192;28;20222;-17
2021/04/27 23:05:12;;;;;;;2.13;0.50;;;21.50;38.90;;;;;;10336593;28;20221;-18
2021/04/27 23:10:34;;;;;;;1.70;0.60;;;21.60;38.70;;;;;;10328109;28;20191;-18
2021/04/27 23:15:57;;;;;;;0.67;0.60;;;21.50;38.50;;;;;;10363824;28;20225;-14
2021/04/27 23:21:18;;;;;;;1.63;0.70;;;21.50;38.60;;;;;;10371434;28;20195;-18
2021/04/27 23:26:40;;;;;;;0.50;0.50;;;21.50;38.60;;;;;;10371618;28;20644;-18
2021/04/27 23:32:02;;;;;;;0.83;0.50;;;21.50;38.60;;;;;;10352485;28;20202;-15
2021/04/27 23:37:24;;;;;;;0.93;0.50;;;21.50;38.60;;;;;;10355315;28;20214;-20
2021/04/27 23:42:47;;;;;;;0.80;0.60;;;21.50;38.70;;;;;;10377261;28;20709;-20
2021/04/27 23:48:10;;;;;;;0.80;0.60;;;21.50;38.60;;;;;;10375916;28;20197;-18
2021/04/27 23:53:32;;;;;;;1.00;0.77;;;21.50;38.70;;;;;;10374909;28;20304;-14
2021/04/27 23:58:53;;;;;;;0.63;0.60;;;21.40;38.80;;;;;;10374326;28;20218;-15
